Time;durP1;ratioP1;P1;durP2;ratioP2;P2;SDS_P1;SDS_P2;PMS_P1;PMS_P2;Temp;Humidity;BMP_temperature;BMP_pressure;BME280_temperature;BME280_humidity;BME280_pressure;Samples;Min_cycle;Max_cycle;Signal;HPM_P1;HPM_P2
2023/08/16 00:01:13;;;;;;;;;;;18.70;99.90;;;;;;5032135;28;20029;-60
2023/08/16 00:03:40;;;;;;;11.13;7.43;;;18.70;99.90;;;;;;5031220;28;19928;-61
2023/08/16 00:06:12;;;;;;;12.00;8.02;;;18.70;99.90;;;;;;5031068;28;20030;-60
2023/08/16 00:08:39;;;;;;;11.63;7.40;;;18.70;99.90;;;;;;5032841;28;20038;-60
2023/08/16 00:11:07;;;;;;;9.70;6.53;;;18.70;99.90;;;;;;5031373;28;20075;-61
2023/08/16 00:13:34;;;;;;;9.00;7.25;;;18.70;99.90;;;;;;5030247;28;20041;-62
2023/08/16 00:16:02;;;;;;;8.82;6.68;;;18.70;99.90;;;;;;5038507;28;20046;-62
2023/08/16 00:18:29;;;;;;;9.85;5.90;;;18.70;99.90;;;;;;5031501;28;20084;-61
2023/08/16 00:20:59;;;;;;;9.35;6.32;;;18.70;99.90;;;;;;5031605;28;20049;-61
2023/08/16 00:23:27;;;;;;;8.05;5.85;;;18.80;99.90;;;;;;5030591;28;20068;-62
2023/08/16 00:25:53;;;;;;;8.43;6.00;;;18.70;99.90;;;;;;5031125;28;20048;-60
2023/08/16 00:28:20;;;;;;;10.00;5.95;;;18.70;99.90;;;;;;5031382;28;20394;-61
2023/08/16 00:30:54;;;;;;;9.05;5.80;;;18.70;99.90;;;;;;5031433;28;20084;-61
2023/08/16 00:33:21;;;;;;;7.95;5.95;;;18.70;99.90;;;;;;5013949;28;20041;-61
2023/08/16 00:35:49;;;;;;;;;;;18.70;99.90;;;;;;5013474;28;20053;-61
2023/08/16 00:38:16;;;;;;;7.80;6.32;;;18.70;99.90;;;;;;5030020;28;20008;-61
2023/08/16 00:40:50;;;;;;;8.20;5.78;;;18.70;99.90;;;;;;5031341;28;20067;-61
2023/08/16 00:43:18;;;;;;;9.27;6.13;;;18.70;99.90;;;;;;5012453;28;20041;-62
2023/08/16 00:45:48;;;;;;;9.48;6.47;;;18.80;99.90;;;;;;5029238;28;20059;-62
2023/08/16 00:48:17;;;;;;;8.60;6.38;;;18.70;99.90;;;;;;5012911;28;20049;-61
2023/08/16 00:50:45;;;;;;;7.80;5.80;;;18.70;99.90;;;;;;5017263;28;20550;-61
2023/08/16 00:53:16;;;;;;;11.10;6.13;;;18.70;99.90;;;;;;5017285;28;20048;-60
2023/08/16 00:55:44;;;;;;;11.10;6.05;;;18.70;99.90;;;;;;5034233;28;20041;-62
2023/08/16 00:58:11;;;;;;;12.35;6.22;;;18.70;99.90;;;;;;5034987;28;20471;-61
2023/08/16 01:00:38;;;;;;;9.07;5.97;;;18.70;99.90;;;;;;5034278;28;20057;-61
2023/08/16 01:03:05;;;;;;;7.22;5.85;;;18.70;99.90;;;;;;5033780;28;20378;-62
2023/08/16 01:05:32;;;;;;;9.80;6.05;;;18.70;99.90;;;;;;5033381;28;20073;-62
2023/08/16 01:08:01;;;;;;;7.40;5.65;;;18.60;99.90;;;;;;5021374;28;20495;-60
2023/08/16 01:10:38;;;;;;;8.80;6.65;;;18.60;99.90;;;;;;5030345;28;20064;-62
2023/08/16 01:13:13;;;;;;;9.35;5.65;;;18.50;99.90;;;;;;5036723;28;20040;-62
2023/08/16 01:15:44;;;;;;;9.10;6.25;;;18.50;99.90;;;;;;5034190;28;20060;-62
2023/08/16 01:18:12;;;;;;;9.18;6.82;;;18.50;99.90;;;;;;5038461;28;20090;-62
2023/08/16 01:20:40;;;;;;;8.65;6.18;;;18.40;99.90;;;;;;5037276;28;20060;-62
2023/08/16 01:23:19;;;;;;;10.27;5.90;;;18.40;99.90;;;;;;5015826;28;20106;-62
2023/08/16 01:25:56;;;;;;;7.85;6.03;;;18.30;99.90;;;;;;5032724;28;20037;-62
2023/08/16 01:28:26;;;;;;;8.48;5.85;;;18.30;99.90;;;;;;5004026;28;20453;-61
2023/08/16 01:31:01;;;;;;;6.85;5.65;;;18.30;99.90;;;;;;5034278;28;20037;-62
2023/08/16 01:33:28;;;;;;;6.72;5.60;;;18.70;99.90;;;;;;5034215;28;20116;-61
2023/08/16 01:35:56;;;;;;;12.00;5.90;;;18.10;99.90;;;;;;5034004;28;20445;-62
2023/08/16 01:38:24;;;;;;;7.60;5.88;;;18.20;99.90;;;;;;5018360;28;20064;-61
2023/08/16 01:41:13;;;;;;;12.20;5.28;;;18.10;99.90;;;;;;5031425;28;20046;-61
2023/08/16 01:43:43;;;;;;;7.57;5.05;;;18.10;99.90;;;;;;5029932;28;20052;-62
2023/08/16 01:46:11;;;;;;;6.50;5.30;;;18.10;99.90;;;;;;5033485;28;20041;-61
2023/08/16 01:48:38;;;;;;;;;;;18.10;99.90;;;;;;5035545;28;20048;-62
2023/08/16 01:51:06;;;;;;;10.57;5.43;;;18.00;99.90;;;;;;5010582;28;19928;-60
2023/08/16 01:53:34;;;;;;;7.53;4.97;;;18.00;99.90;;;;;;5034346;28;20140;-59
2023/08/16 01:56:01;;;;;;;9.00;5.47;;;17.90;99.90;;;;;;5030633;28;20045;-62
2023/08/16 01:58:28;;;;;;;7.72;5.05;;;17.90;99.90;;;;;;5009329;28;20044;-62
2023/08/16 02:00:55;;;;;;;8.52;4.82;;;17.90;99.90;;;;;;5024680;28;20048;-62
2023/08/16 02:03:22;;;;;;;8.27;4.68;;;17.80;99.90;;;;;;5024534;28;20448;-62
2023/08/16 02:05:48;;;;;;;;;;;17.80;99.90;;;;;;5031971;28;20425;-62
2023/08/16 02:08:15;;;;;;;5.82;4.15;;;17.70;99.90;;;;;;5026687;28;19927;-62
2023/08/16 02:10:42;;;;;;;10.48;4.15;;;17.60;99.90;;;;;;5007481;28;20054;-61
2023/08/16 02:13:09;;;;;;;6.80;3.92;;;17.60;99.90;;;;;;5014378;28;20061;-62
2023/08/16 02:15:36;;;;;;;10.98;4.93;;;17.50;99.90;;;;;;5027615;28;20497;-61
2023/08/16 02:18:03;;;;;;;9.35;5.00;;;17.40;99.90;;;;;;5014857;28;20115;-61
2023/08/16 02:20:30;;;;;;;;;;;17.40;99.90;;;;;;5006860;28;20115;-62
2023/08/16 02:22:57;;;;;;;6.95;4.82;;;17.40;99.90;;;;;;5013893;28;19920;-60
2023/08/16 02:25:24;;;;;;;7.03;5.72;;;17.40;99.90;;;;;;5015178;28;20476;-61
2023/08/16 02:27:51;;;;;;;6.43;5.35;;;17.40;99.90;;;;;;5030362;28;20046;-62
2023/08/16 02:30:17;;;;;;;8.07;5.78;;;17.40;99.90;;;;;;5023494;28;20041;-60
2023/08/16 02:32:44;;;;;;;7.90;6.07;;;17.40;99.90;;;;;;5011084;28;20384;-61
2023/08/16 02:35:11;;;;;;;6.65;4.60;;;17.40;99.90;;;;;;5014605;28;20128;-62
2023/08/16 02:37:38;;;;;;;7.63;5.43;;;17.40;99.90;;;;;;5014482;28;20038;-62
2023/08/16 02:40:06;;;;;;;7.00;4.50;;;17.40;99.90;;;;;;5032328;28;20484;-62
2023/08/16 02:42:32;;;;;;;6.45;4.65;;;17.40;99.90;;;;;;5032197;28;20046;-61
2023/08/16 02:44:59;;;;;;;8.73;4.85;;;17.40;99.90;;;;;;5013977;28;20049;-60
2023/08/16 02:47:27;;;;;;;9.10;4.50;;;17.40;99.90;;;;;;5022761;28;20124;-62
2023/08/16 02:49:54;;;;;;;8.65;5.10;;;17.30;99.90;;;;;;5010652;28;20080;-61
2023/08/16 02:52:21;;;;;;;;;;;17.30;99.90;;;;;;5030904;28;20402;-61
2023/08/16 02:54:48;;;;;;;8.80;4.40;;;17.30;99.90;;;;;;5033939;28;20542;-61
2023/08/16 02:57:16;;;;;;;5.85;3.78;;;17.30;99.90;;;;;;5014962;28;20045;-60
2023/08/16 02:59:46;;;;;;;5.93;4.53;;;17.30;99.90;;;;;;5015569;28;20076;-62
2023/08/16 03:02:14;;;;;;;6.45;4.68;;;17.20;99.90;;;;;;5032406;28;20386;-61
2023/08/16 03:04:41;;;;;;;6.72;4.13;;;17.20;99.90;;;;;;5014221;28;20650;-62
2023/08/16 03:07:09;;;;;;;8.00;5.00;;;17.10;99.90;;;;;;5031552;28;20033;-62
2023/08/16 03:09:38;;;;;;;7.65;4.40;;;17.20;99.90;;;;;;5014204;28;20056;-61
2023/08/16 03:12:06;;;;;;;7.53;5.25;;;17.20;99.90;;;;;;5030204;28;20517;-60
2023/08/16 03:14:33;;;;;;;8.80;5.65;;;17.20;99.90;;;;;;5039537;28;20509;-62
2023/08/16 03:17:00;;;;;;;10.52;5.35;;;17.20;99.90;;;;;;5032648;28;20144;-62
2023/08/16 03:19:28;;;;;;;10.25;6.25;;;17.20;99.90;;;;;;5014105;28;20580;-62
2023/08/16 03:21:56;;;;;;;8.85;6.25;;;17.20;99.90;;;;;;5012210;28;20049;-62
2023/08/16 03:24:24;;;;;;;9.15;5.90;;;17.20;99.90;;;;;;5012830;28;20513;-60
2023/08/16 03:26:51;;;;;;;9.35;5.25;;;17.10;99.90;;;;;;5023784;28;20053;-61
2023/08/16 03:29:18;;;;;;;11.98;5.80;;;17.10;99.90;;;;;;5013370;28;20042;-62
2023/08/16 03:31:46;;;;;;;11.63;5.85;;;17.10;99.90;;;;;;5024800;28;20411;-61
2023/08/16 03:34:14;;;;;;;12.60;5.97;;;17.20;99.90;;;;;;5012732;28;20064;-62
2023/08/16 03:36:42;;;;;;;7.13;5.15;;;17.10;99.90;;;;;;5022867;28;20060;-62
2023/08/16 03:39:09;;;;;;;7.25;4.85;;;17.10;99.90;;;;;;5030878;28;20050;-60
2023/08/16 03:41:37;;;;;;;14.52;5.45;;;17.10;99.90;;;;;;5030614;28;20051;-61
2023/08/16 03:44:06;;;;;;;6.03;4.78;;;17.00;99.90;;;;;;5013244;28;20049;-62
2023/08/16 03:46:36;;;;;;;13.13;5.93;;;17.00;99.90;;;;;;5030525;28;20411;-61
2023/08/16 03:49:03;;;;;;;7.90;4.50;;;17.00;99.90;;;;;;5030953;28;20395;-61
2023/08/16 03:51:31;;;;;;;6.38;4.32;;;17.00;99.90;;;;;;5032813;28;20040;-60
2023/08/16 03:53:57;;;;;;;;;;;16.90;99.90;;;;;;5028435;28;20153;-61
2023/08/16 03:56:25;;;;;;;5.05;3.67;;;16.90;99.90;;;;;;5018609;28;20028;-61
2023/08/16 03:58:54;;;;;;;5.70;4.03;;;16.80;99.90;;;;;;5028571;28;20042;-62
2023/08/16 04:01:22;;;;;;;6.03;3.65;;;16.80;99.90;;;;;;5013201;28;20504;-61
2023/08/16 04:03:49;;;;;;;5.60;3.83;;;16.60;99.90;;;;;;5015342;28;20053;-60
2023/08/16 04:06:19;;;;;;;6.03;4.13;;;16.70;99.90;;;;;;5030110;28;20375;-61
2023/08/16 04:08:47;;;;;;;4.15;3.72;;;16.60;99.90;;;;;;5029173;28;20037;-62
2023/08/16 04:11:15;;;;;;;6.45;5.00;;;16.60;99.90;;;;;;5030444;28;20061;-61
2023/08/16 04:13:41;;;;;;;;;;;16.60;99.90;;;;;;5021742;28;20056;-62
2023/08/16 04:16:10;;;;;;;6.25;3.88;;;16.70;99.90;;;;;;5029369;28;19921;-62
2023/08/16 04:18:37;;;;;;;;;;;16.60;99.90;;;;;;5025432;28;20041;-62
2023/08/16 04:21:04;;;;;;;6.05;4.38;;;16.50;99.90;;;;;;5030067;28;20385;-61
2023/08/16 04:23:31;;;;;;;6.13;4.60;;;16.50;99.90;;;;;;5028077;28;20041;-62
2023/08/16 04:25:58;;;;;;;5.53;4.22;;;16.50;99.90;;;;;;5022845;28;20041;-61
2023/08/16 04:28:24;;;;;;;5.50;3.50;;;16.50;99.90;;;;;;5017241;28;20128;-62
2023/08/16 04:30:52;;;;;;;6.00;4.35;;;16.50;99.90;;;;;;5026702;28;20128;-61
2023/08/16 04:33:19;;;;;;;6.95;4.22;;;16.40;99.90;;;;;;5037852;28;20041;-61
2023/08/16 04:35:46;;;;;;;8.30;3.90;;;16.50;99.90;;;;;;5028801;28;20053;-60
2023/08/16 04:38:12;;;;;;;7.95;4.20;;;16.50;99.90;;;;;;5028194;28;20056;-61
2023/08/16 04:40:40;;;;;;;;;;;16.50;99.90;;;;;;5025391;28;20038;-61
2023/08/16 04:43:06;;;;;;;9.10;3.70;;;16.50;99.90;;;;;;5029491;28;19925;-61
2023/08/16 04:45:34;;;;;;;6.72;4.00;;;16.40;99.90;;;;;;5012207;28;20049;-61
2023/08/16 04:48:00;;;;;;;4.30;3.90;;;16.40;99.90;;;;;;5032382;28;20141;-61
2023/08/16 04:50:27;;;;;;;4.35;3.45;;;16.40;99.90;;;;;;5012665;28;20037;-61
2023/08/16 04:52:56;;;;;;;4.95;3.30;;;16.40;99.90;;;;;;5022576;28;20065;-61
2023/08/16 04:55:26;;;;;;;7.20;3.83;;;16.40;99.90;;;;;;5035806;28;20091;-62
2023/08/16 04:57:54;;;;;;;6.80;4.13;;;16.40;99.90;;;;;;5029803;28;20065;-60
2023/08/16 05:00:22;;;;;;;4.50;3.13;;;16.30;99.90;;;;;;5012392;28;20066;-61
2023/08/16 05:02:56;;;;;;;5.13;4.15;;;16.30;99.90;;;;;;5031277;28;20041;-61
2023/08/16 05:05:24;;;;;;;9.20;4.78;;;16.40;99.90;;;;;;5011562;28;20060;-61
2023/08/16 05:07:51;;;;;;;5.43;4.55;;;16.40;99.90;;;;;;5013211;28;20519;-60
2023/08/16 05:10:18;;;;;;;9.48;4.97;;;16.60;99.90;;;;;;5029518;28;20072;-61
2023/08/16 05:12:45;;;;;;;4.93;4.35;;;16.60;99.90;;;;;;5013519;28;20045;-62
2023/08/16 05:15:12;;;;;;;7.13;3.90;;;16.70;99.90;;;;;;5003218;28;20104;-62
2023/08/16 05:17:39;;;;;;;6.78;3.40;;;16.80;99.90;;;;;;5013969;28;20048;-61
2023/08/16 05:20:07;;;;;;;4.18;3.33;;;16.90;99.90;;;;;;5029172;28;20046;-60
2023/08/16 05:22:34;;;;;;;6.88;3.65;;;16.90;99.90;;;;;;5013930;28;20201;-62
2023/08/16 05:25:01;;;;;;;6.20;3.95;;;16.90;99.90;;;;;;5011748;28;20158;-59
2023/08/16 05:27:29;;;;;;;5.63;3.15;;;16.90;99.90;;;;;;5030810;28;20037;-62
2023/08/16 05:29:56;;;;;;;4.65;3.45;;;16.90;99.90;;;;;;5029736;28;20095;-61
2023/08/16 05:32:23;;;;;;;4.85;3.83;;;17.00;99.90;;;;;;5030665;28;20042;-62
2023/08/16 05:34:53;;;;;;;5.10;3.35;;;17.00;99.90;;;;;;5030189;28;20037;-61
2023/08/16 05:37:20;;;;;;;6.35;3.60;;;17.10;99.90;;;;;;5032816;28;20192;-60
2023/08/16 05:39:47;;;;;;;6.03;3.70;;;17.10;99.90;;;;;;5034934;28;20041;-62
2023/08/16 05:42:14;;;;;;;7.35;4.53;;;17.20;99.90;;;;;;5034017;28;20411;-60
2023/08/16 05:44:40;;;;;;;7.68;4.57;;;17.30;99.90;;;;;;5032989;28;20045;-62
2023/08/16 05:47:07;;;;;;;9.25;4.63;;;17.40;99.90;;;;;;5034098;28;20438;-62
2023/08/16 05:49:34;;;;;;;8.50;5.97;;;17.50;99.90;;;;;;5033967;28;20042;-61
2023/08/16 05:52:01;;;;;;;8.40;5.72;;;17.50;99.90;;;;;;5034078;28;20051;-61
2023/08/16 05:54:28;;;;;;;8.65;6.03;;;17.60;99.90;;;;;;5025673;28;20034;-61
2023/08/16 05:56:54;;;;;;;11.55;5.68;;;17.60;99.90;;;;;;5034985;28;20482;-60
2023/08/16 05:59:21;;;;;;;7.78;5.30;;;17.70;99.90;;;;;;5033665;28;20033;-61
2023/08/16 06:01:48;;;;;;;5.68;4.88;;;17.80;99.90;;;;;;5033438;28;20375;-61
2023/08/16 06:04:15;;;;;;;8.30;5.05;;;17.90;99.90;;;;;;5032616;28;20041;-60
2023/08/16 06:06:41;;;;;;;5.30;4.55;;;17.90;99.90;;;;;;5033474;28;20048;-60
2023/08/16 06:09:08;;;;;;;12.48;5.57;;;18.00;99.90;;;;;;5039023;28;20042;-61
2023/08/16 06:11:36;;;;;;;11.68;5.47;;;18.00;99.90;;;;;;5032763;28;20050;-62
2023/08/16 06:14:03;;;;;;;8.75;5.50;;;18.00;99.90;;;;;;5032132;28;20483;-60
2023/08/16 06:16:29;;;;;;;8.18;6.15;;;18.00;99.90;;;;;;5036188;28;20068;-62
2023/08/16 06:18:56;;;;;;;7.97;6.03;;;18.00;99.90;;;;;;5032497;28;20056;-60
2023/08/16 06:21:23;;;;;;;6.20;5.35;;;18.10;99.90;;;;;;5032355;28;20038;-62
2023/08/16 06:23:51;;;;;;;7.10;5.80;;;18.20;99.90;;;;;;5030915;28;20048;-62
2023/08/16 06:26:17;;;;;;;9.55;6.30;;;18.40;99.90;;;;;;5030133;28;20053;-62
2023/08/16 06:28:46;;;;;;;8.82;6.07;;;18.50;99.90;;;;;;5032982;28;20048;-62
2023/08/16 06:31:13;;;;;;;7.55;5.90;;;18.70;99.90;;;;;;5032545;28;20330;-60
2023/08/16 06:33:43;;;;;;;7.50;5.82;;;18.80;99.90;;;;;;5032655;28;20486;-61
2023/08/16 06:36:10;;;;;;;11.30;5.78;;;19.00;99.90;;;;;;5039261;28;20043;-61
2023/08/16 06:38:37;;;;;;;9.52;5.78;;;19.10;99.90;;;;;;5032729;28;20041;-61
2023/08/16 06:41:03;;;;;;;8.25;5.85;;;19.20;99.90;;;;;;5031160;28;20068;-61
2023/08/16 06:43:30;;;;;;;13.02;5.90;;;19.10;99.90;;;;;;5032234;28;20513;-61
2023/08/16 06:45:57;;;;;;;6.28;5.68;;;19.30;99.90;;;;;;5031354;28;20053;-62
2023/08/16 06:48:24;;;;;;;9.20;5.82;;;19.30;99.90;;;;;;5032936;28;20037;-62
2023/08/16 06:50:50;;;;;;;7.90;5.60;;;19.30;99.90;;;;;;5038061;28;20053;-62
2023/08/16 06:53:17;;;;;;;10.40;5.22;;;19.30;99.90;;;;;;5031926;28;20061;-62
2023/08/16 06:55:44;;;;;;;10.32;5.80;;;19.50;99.90;;;;;;5032264;28;20051;-62
2023/08/16 06:58:11;;;;;;;6.97;4.85;;;19.60;99.90;;;;;;5037214;28;20041;-62
2023/08/16 07:00:42;;;;;;;7.95;5.30;;;19.80;99.90;;;;;;5031764;28;20108;-62
2023/08/16 07:03:08;;;;;;;6.07;5.25;;;19.90;99.90;;;;;;5031212;28;20041;-62
2023/08/16 07:05:35;;;;;;;9.07;5.82;;;20.00;99.90;;;;;;5030677;28;20490;-62
2023/08/16 07:08:03;;;;;;;7.47;5.15;;;20.10;99.90;;;;;;5032336;28;20052;-61
2023/08/16 07:10:30;;;;;;;7.40;4.90;;;20.20;99.90;;;;;;5031672;28;20049;-62
2023/08/16 07:12:56;;;;;;;9.68;5.38;;;20.20;99.90;;;;;;5032040;28;20402;-62
2023/08/16 07:15:23;;;;;;;8.20;4.65;;;20.30;99.90;;;;;;5036400;28;20049;-62
2023/08/16 07:17:50;;;;;;;8.18;4.40;;;20.40;99.90;;;;;;5032040;28;20052;-62
2023/08/16 07:20:17;;;;;;;5.28;4.00;;;20.50;99.90;;;;;;5031563;28;20045;-61
2023/08/16 07:22:44;;;;;;;4.95;3.88;;;20.50;99.90;;;;;;5032027;28;20041;-61
2023/08/16 07:25:12;;;;;;;6.03;3.75;;;20.60;99.90;;;;;;5030000;28;20064;-61
2023/08/16 07:27:39;;;;;;;4.57;4.05;;;20.70;99.90;;;;;;5031769;28;20041;-60
2023/08/16 07:30:06;;;;;;;;;;;20.80;99.90;;;;;;5013101;28;20050;-61
2023/08/16 07:32:35;;;;;;;8.60;4.15;;;20.90;99.90;;;;;;5014299;28;20341;-61
2023/08/16 07:35:03;;;;;;;;;;;20.90;99.90;;;;;;5030872;28;20110;-62
2023/08/16 07:37:31;;;;;;;5.22;4.10;;;21.00;99.90;;;;;;5036139;28;20275;-62
2023/08/16 07:39:59;;;;;;;5.57;3.80;;;21.10;99.90;;;;;;5031515;28;20042;-62
2023/08/16 07:42:26;;;;;;;7.72;4.35;;;21.10;99.90;;;;;;5030947;28;20092;-62
2023/08/16 07:44:53;;;;;;;5.88;4.13;;;21.20;99.90;;;;;;5031152;28;20046;-62
2023/08/16 07:47:20;;;;;;;4.40;3.97;;;21.20;99.90;;;;;;5031442;28;20076;-62
2023/08/16 07:49:47;;;;;;;5.28;3.60;;;21.20;99.90;;;;;;5031515;28;20049;-61
2023/08/16 07:52:14;;;;;;;6.88;3.70;;;21.20;99.90;;;;;;5031756;28;20060;-62
2023/08/16 07:54:40;;;;;;;5.63;4.05;;;21.30;99.90;;;;;;5030389;28;20045;-62
2023/08/16 07:57:07;;;;;;;5.10;4.18;;;21.40;99.90;;;;;;5031331;28;20060;-62
2023/08/16 07:59:35;;;;;;;5.45;4.20;;;21.50;99.90;;;;;;5034430;28;20037;-62
2023/08/16 08:02:02;;;;;;;5.78;4.20;;;21.60;99.90;;;;;;5038251;28;20041;-62
2023/08/16 08:04:28;;;;;;;5.85;3.97;;;21.70;99.90;;;;;;5029121;28;20041;-62
2023/08/16 08:06:56;;;;;;;6.22;3.88;;;21.90;99.90;;;;;;5029055;28;20042;-62
2023/08/16 08:09:23;;;;;;;4.03;3.58;;;22.00;99.90;;;;;;5030414;28;20037;-62
2023/08/16 08:11:49;;;;;;;7.63;4.22;;;22.10;99.90;;;;;;5030946;28;20049;-62
2023/08/16 08:14:16;;;;;;;6.55;4.03;;;22.20;99.90;;;;;;5030065;28;20120;-62
2023/08/16 08:16:44;;;;;;;5.47;4.13;;;22.20;99.90;;;;;;5034345;28;20437;-62
2023/08/16 08:19:11;;;;;;;4.03;3.60;;;22.30;99.90;;;;;;5030596;28;20053;-62
2023/08/16 08:21:38;;;;;;;4.72;3.58;;;22.40;99.90;;;;;;5030530;28;20376;-62
2023/08/16 08:24:05;;;;;;;12.30;4.05;;;22.60;99.90;;;;;;5036184;28;20152;-62
2023/08/16 08:26:33;;;;;;;;;;;22.60;99.90;;;;;;5031045;28;20056;-62
2023/08/16 08:29:00;;;;;;;5.03;3.58;;;22.50;99.90;;;;;;5030704;28;19921;-61
2023/08/16 08:31:27;;;;;;;6.05;3.40;;;22.60;99.90;;;;;;5036640;28;20123;-62
2023/08/16 08:33:54;;;;;;;5.82;3.85;;;22.70;99.90;;;;;;5030570;28;20045;-62
2023/08/16 08:36:21;;;;;;;;;;;22.80;99.90;;;;;;5030203;28;20057;-61
2023/08/16 08:38:49;;;;;;;5.70;3.88;;;22.90;99.90;;;;;;5031041;28;19929;-61
2023/08/16 08:41:18;;;;;;;6.75;4.03;;;23.00;99.90;;;;;;5038345;28;20041;-62
2023/08/16 08:43:48;;;;;;;3.80;3.50;;;23.10;99.90;;;;;;5030829;28;20044;-62
2023/08/16 08:46:29;;;;;;;4.72;3.75;;;23.00;99.90;;;;;;5030708;28;20430;-62
2023/08/16 08:48:59;;;;;;;6.22;3.90;;;23.10;99.90;;;;;;5037553;28;20042;-62
2023/08/16 08:51:31;;;;;;;6.07;4.07;;;23.20;99.90;;;;;;5030907;28;20406;-62
2023/08/16 08:53:58;;;;;;;6.25;3.92;;;23.30;99.90;;;;;;5029352;28;20053;-62
2023/08/16 08:56:27;;;;;;;4.25;3.83;;;23.40;99.90;;;;;;5032378;28;20068;-62
2023/08/16 08:58:59;;;;;;;7.15;3.65;;;23.30;99.90;;;;;;5029655;28;20069;-62
2023/08/16 09:01:40;;;;;;;4.20;3.80;;;23.40;99.90;;;;;;5030258;28;20045;-62
2023/08/16 09:04:09;;;;;;;4.68;4.18;;;23.50;99.90;;;;;;5030984;28;20344;-62
2023/08/16 09:06:36;;;;;;;7.07;3.65;;;23.70;99.90;;;;;;5029182;28;20047;-62
2023/08/16 09:09:04;;;;;;;6.35;3.90;;;23.80;99.90;;;;;;5029582;28;20042;-63
2023/08/16 09:11:31;;;;;;;4.63;3.88;;;23.90;99.90;;;;;;5031916;28;20482;-62
2023/08/16 09:14:02;;;;;;;6.18;4.10;;;24.10;99.90;;;;;;5034001;28;20051;-62
2023/08/16 09:16:28;;;;;;;4.53;3.97;;;24.10;99.90;;;;;;5036442;28;20049;-62
2023/08/16 09:18:55;;;;;;;6.03;3.75;;;24.20;99.90;;;;;;5034095;28;20041;-62
2023/08/16 09:21:28;;;;;;;5.53;3.67;;;24.10;99.90;;;;;;5034248;28;20037;-62
2023/08/16 09:23:57;;;;;;;5.53;3.60;;;24.10;99.90;;;;;;5037339;28;20045;-62
2023/08/16 09:26:26;;;;;;;6.13;3.75;;;24.00;99.90;;;;;;5033898;28;20037;-62
2023/08/16 09:29:00;;;;;;;6.15;4.00;;;24.00;99.90;;;;;;5033924;28;20045;-62
2023/08/16 09:31:29;;;;;;;4.55;4.07;;;24.00;99.90;;;;;;5036932;28;20128;-62
2023/08/16 09:33:58;;;;;;;4.30;3.90;;;24.00;99.90;;;;;;5032920;28;20510;-62
2023/08/16 09:36:35;;;;;;;4.72;3.90;;;24.00;99.90;;;;;;5033556;28;20045;-62
2023/08/16 09:39:08;;;;;;;4.63;4.15;;;24.10;99.90;;;;;;5036687;28;20049;-62
2023/08/16 09:41:44;;;;;;;6.93;3.80;;;24.20;99.90;;;;;;5032986;28;20120;-62
2023/08/16 09:44:11;;;;;;;6.18;4.28;;;24.30;99.90;;;;;;5033114;28;20041;-62
2023/08/16 09:46:38;;;;;;;7.35;3.75;;;24.50;99.90;;;;;;5032740;28;20055;-62
2023/08/16 09:49:25;;;;;;;5.38;3.92;;;24.50;99.90;;;;;;5033565;28;20092;-62
2023/08/16 09:51:52;;;;;;;5.60;3.67;;;24.70;99.90;;;;;;5033328;28;20493;-62
2023/08/16 09:54:23;;;;;;;10.18;4.07;;;24.80;99.90;;;;;;5039787;28;20044;-62
2023/08/16 09:56:51;;;;;;;6.10;3.75;;;24.90;99.90;;;;;;5032541;28;20421;-62
2023/08/16 09:59:20;;;;;;;7.03;3.70;;;25.00;99.90;;;;;;5033413;28;20486;-62
2023/08/16 10:01:50;;;;;;;9.40;4.15;;;25.10;99.90;;;;;;5032910;28;20348;-62
2023/08/16 10:04:20;;;;;;;5.03;3.70;;;25.20;99.90;;;;;;5035514;28;20048;-61
2023/08/16 10:07:08;;;;;;;4.97;3.65;;;25.30;99.90;;;;;;5027334;28;20038;-62
2023/08/16 10:09:41;;;;;;;6.10;3.95;;;25.30;99.90;;;;;;5032909;28;20045;-62
2023/08/16 10:12:10;;;;;;;6.93;4.07;;;25.20;99.90;;;;;;5033298;28;20080;-62
2023/08/16 10:14:40;;;;;;;5.00;3.95;;;25.20;99.90;;;;;;5032429;28;20129;-62
2023/08/16 10:17:08;;;;;;;8.50;4.13;;;25.30;99.90;;;;;;5033232;28;20048;-62
2023/08/16 10:19:37;;;;;;;3.78;3.42;;;25.30;99.90;;;;;;5031820;28;20038;-62
2023/08/16 10:22:35;;;;;;;4.60;3.53;;;25.30;99.90;;;;;;5034981;28;20106;-62
2023/08/16 10:25:17;;;;;;;4.00;3.60;;;25.30;99.90;;;;;;5031479;28;20044;-63
2023/08/16 10:27:45;;;;;;;4.50;3.30;;;25.40;99.90;;;;;;5032924;28;20034;-62
2023/08/16 10:30:19;;;;;;;6.45;3.15;;;25.40;99.90;;;;;;5036234;28;20072;-62
2023/08/16 10:33:16;;;;;;;4.45;3.05;;;25.60;99.90;;;;;;5032679;28;20486;-63
2023/08/16 10:35:44;;;;;;;7.70;3.20;;;25.70;99.90;;;;;;5014988;28;20077;-63
2023/08/16 10:38:11;;;;;;;4.60;3.03;;;26.00;99.90;;;;;;5035552;28;20042;-62
2023/08/16 10:40:38;;;;;;;3.90;3.22;;;26.10;99.90;;;;;;5032530;28;20052;-63
2023/08/16 10:43:06;;;;;;;;;;;26.20;99.90;;;;;;5032764;28;20514;-62
2023/08/16 10:45:34;;;;;;;4.13;2.83;;;26.10;99.90;;;;;;5032099;28;19952;-62
2023/08/16 10:48:14;;;;;;;3.40;2.70;;;26.00;99.90;;;;;;5032781;28;20041;-62
2023/08/16 10:50:42;;;;;;;3.30;3.00;;;26.00;99.90;;;;;;5032587;28;20038;-63
2023/08/16 10:53:09;;;;;;;3.10;2.83;;;26.10;99.90;;;;;;5032567;28;20048;-63
2023/08/16 10:55:35;;;;;;;;;;;26.30;99.90;;;;;;5035992;28;20041;-62
2023/08/16 10:58:02;;;;;;;3.15;2.83;;;26.30;99.90;;;;;;5032302;28;19943;-62
2023/08/16 11:00:32;;;;;;;;;;;26.30;99.90;;;;;;5032464;28;20045;-61
2023/08/16 11:03:01;;;;;;;4.95;2.97;;;26.30;99.90;;;;;;5036088;28;19927;-62
2023/08/16 11:05:33;;;;;;;3.30;2.88;;;26.30;99.90;;;;;;5030754;28;20037;-62
2023/08/16 11:08:01;;;;;;;4.05;3.65;;;26.50;99.90;;;;;;5031736;28;20095;-62
2023/08/16 11:10:35;;;;;;;3.50;3.22;;;26.70;99.90;;;;;;5031277;28;20434;-63
2023/08/16 11:13:03;;;;;;;3.60;3.15;;;26.90;99.90;;;;;;5032233;28;20532;-62
2023/08/16 11:15:30;;;;;;;3.15;2.85;;;26.70;99.90;;;;;;5030965;28;20041;-63
2023/08/16 11:17:57;;;;;;;3.22;2.92;;;26.70;99.90;;;;;;5032351;28;20034;-63
2023/08/16 11:20:35;;;;;;;3.63;3.17;;;26.80;99.90;;;;;;5032354;28;20045;-62
2023/08/16 11:23:03;;;;;;;6.13;3.35;;;27.00;99.90;;;;;;5031408;28;20041;-62
2023/08/16 11:25:33;;;;;;;3.53;3.20;;;27.00;99.90;;;;;;5032106;28;20037;-63
2023/08/16 11:28:04;;;;;;;4.63;3.42;;;27.20;99.90;;;;;;5024253;28;20053;-63
2023/08/16 11:30:31;;;;;;;4.88;3.45;;;27.30;99.90;;;;;;5032701;28;20120;-63
2023/08/16 11:32:59;;;;;;;4.13;3.38;;;27.30;99.90;;;;;;5031294;28;20104;-63
2023/08/16 11:35:27;;;;;;;5.05;3.30;;;27.40;99.90;;;;;;5031746;28;20057;-62
2023/08/16 11:37:54;;;;;;;3.20;2.95;;;27.50;99.90;;;;;;5036170;28;20049;-62
2023/08/16 11:40:23;;;;;;;3.60;3.30;;;27.50;99.90;;;;;;5032309;28;20048;-62
2023/08/16 11:42:51;;;;;;;3.58;3.28;;;27.50;99.90;;;;;;5029117;28;20029;-62
2023/08/16 11:45:19;;;;;;;;;;;27.40;99.90;;;;;;5026572;28;20079;-61
2023/08/16 11:47:50;;;;;;;4.45;3.53;;;27.40;99.90;;;;;;5031910;28;19928;-62
2023/08/16 11:50:18;;;;;;;3.67;3.17;;;27.50;99.90;;;;;;5038069;28;20041;-62
2023/08/16 11:53:02;;;;;;;5.03;2.90;;;27.80;99.90;;;;;;5031907;28;20050;-62
2023/08/16 11:55:29;;;;;;;5.07;3.10;;;28.00;99.90;;;;;;5012849;28;20041;-60
2023/08/16 11:58:09;;;;;;;4.78;3.17;;;27.90;99.90;;;;;;5032489;28;20046;-62
2023/08/16 12:00:38;;;;;;;3.50;3.17;;;27.80;99.90;;;;;;5031563;28;20420;-62
2023/08/16 12:03:08;;;;;;;3.67;3.25;;;27.70;99.90;;;;;;5023991;28;20108;-60
2023/08/16 12:05:38;;;;;;;3.90;3.03;;;27.70;99.90;;;;;;5040460;28;20076;-62
2023/08/16 12:08:06;;;;;;;4.43;3.50;;;27.60;99.90;;;;;;5022661;28;20550;-62
2023/08/16 12:10:34;;;;;;;4.30;3.90;;;27.70;99.90;;;;;;5035733;28;20045;-60
2023/08/16 12:13:12;;;;;;;6.40;3.70;;;27.80;99.90;;;;;;5030585;28;20140;-62
2023/08/16 12:15:41;;;;;;;4.38;3.58;;;27.90;99.90;;;;;;5031265;28;20438;-62
2023/08/16 12:18:08;;;;;;;4.82;3.30;;;28.00;99.90;;;;;;5038975;28;20045;-62
2023/08/16 12:20:35;;;;;;;;;;;28.20;99.90;;;;;;5032077;28;20044;-62
2023/08/16 12:23:03;;;;;;;5.32;3.50;;;28.40;99.90;;;;;;5031050;28;19921;-62
2023/08/16 12:25:29;;;;;;;4.57;3.53;;;28.60;99.90;;;;;;5030310;28;20504;-62
2023/08/16 12:27:56;;;;;;;;;;;28.50;99.90;;;;;;5031687;28;20048;-62
2023/08/16 12:30:23;;;;;;;6.53;3.40;;;28.60;99.90;;;;;;5031206;28;19927;-62
2023/08/16 12:32:49;;;;;;;;;;;28.70;99.90;;;;;;5031813;28;20041;-61
2023/08/16 12:35:16;;;;;;;4.03;3.47;;;28.60;99.90;;;;;;5036502;28;19921;-62
2023/08/16 12:37:43;;;;;;;;;;;28.60;99.90;;;;;;5033419;28;20049;-60
2023/08/16 12:40:12;;;;;;;;;;;28.50;99.90;;;;;;5031797;28;19928;-61
2023/08/16 12:42:39;;;;;;;6.18;3.95;;;28.50;99.90;;;;;;5031455;28;19925;-62
2023/08/16 12:45:06;;;;;;;6.25;3.60;;;28.50;99.90;;;;;;5032195;28;20132;-62
2023/08/16 12:47:33;;;;;;;5.25;4.05;;;28.50;99.90;;;;;;5035661;28;20059;-62
2023/08/16 12:50:00;;;;;;;;;;;28.40;99.90;;;;;;5035022;28;20048;-62
2023/08/16 12:52:26;;;;;;;5.53;3.88;;;28.20;99.90;;;;;;5040889;28;20285;-61
2023/08/16 12:54:53;;;;;;;;;;;28.20;99.90;;;;;;5036413;28;20037;-60
2023/08/16 12:57:20;;;;;;;4.30;3.63;;;28.10;99.90;;;;;;5035096;28;19927;-61
2023/08/16 12:59:50;;;;;;;7.28;3.72;;;28.10;99.90;;;;;;5034168;28;20045;-61